^^
Peaceful Hills Weather Station Historical Data
 
Daily Summary for May 28, 2022 Units:  English    Metric   Both
Daily Weekly Monthly Yearly
  Current: High: Low: Average:
Temperature: 86.2 °F 86.5 °F 54.1 °F 66.6 °F
Dew Point: 64.6 °F 64.8 °F 51.8 °F 58.3 °F
Humidity: 48.6% 92% 45.6% 78%
Wind Speed: 4.6mph 7.4mph 0mph 2mph
Wind Gust: 9mph 16mph - -
WindSouth - - SE
Pressure: 29.87 in 30.00 in 29.87 in -
Precipitation: 0.00 in      
 
 
Tabular Data for May 28, 2022
Time Temperature Dew Point Pressure Wind Wind Speed Wind Gust Humidity Rainfall Rate (Hourly)
00:09 60.1 °F 57.5 °F 29.95 in Calm     91% 0.00 in
00:14 59.9 °F 57.3 °F 29.95 in Calm     91% 0.00 in
00:19 59.9 °F 57.3 °F 29.95 in Calm     91% 0.00 in
00:24 59.8 °F 57.2 °F 29.95 in Calm     91% 0.00 in
00:29 59.7 °F 57.1 °F 29.95 in Calm     91% 0.00 in
00:34 59.5 °F 57 °F 29.95 in Calm     91.2% 0.00 in
00:39 59.4 °F 56.9 °F 29.95 in Calm     91.4% 0.00 in
00:44 59.3 °F 56.7 °F 29.95 in Calm   2 mph 91.2% 0.00 in
00:49 59.1 °F 56.5 °F 29.95 in Calm     91% 0.00 in
00:54 59 °F 56.7 °F 29.95 in Calm     91.8% 0.00 in
00:59 58.9 °F 56.6 °F 29.95 in Calm     91.8% 0.00 in
01:04 58.8 °F 56.4 °F 29.95 in Calm     91.8% 0.00 in
01:09 58.7 °F 56.4 °F 29.95 in Calm     92% 0.00 in
01:14 58.7 °F 56.4 °F 29.95 in Calm     92% 0.00 in
01:19 58.6 °F 56.3 °F 29.95 in Calm     92% 0.00 in
01:24 58.6 °F 56.3 °F 29.95 in Calm     92% 0.00 in
01:29 58.5 °F 56.2 °F 29.95 in Calm     92% 0.00 in
01:34 58.5 °F 56.2 °F 29.95 in Calm     92% 0.00 in
01:39 58.3 °F 56 °F 29.95 in Calm     92% 0.00 in
01:44 58.2 °F 55.9 °F 29.94 in Calm   2 mph 92% 0.00 in
01:49 58.1 °F 55.8 °F 29.95 in Calm   2 mph 92% 0.00 in
01:54 58 °F 55.7 °F 29.94 in Calm     92% 0.00 in
01:59 57.9 °F 55.6 °F 29.94 in Calm     92% 0.00 in
02:04 57.8 °F 55.5 °F 29.94 in Calm     92% 0.00 in
02:09 57.7 °F 55.4 °F 29.94 in Calm     92% 0.00 in
02:14 57.5 °F 55.2 °F 29.94 in Calm     92% 0.00 in
02:19 57.3 °F 55 °F 29.94 in Calm     92% 0.00 in
02:24 57.3 °F 55 °F 29.94 in Calm     92% 0.00 in
02:29 57.3 °F 55 °F 29.94 in Calm     92% 0.00 in
02:34 57.2 °F 54.9 °F 29.94 in Calm     92% 0.00 in
02:39 57.2 °F 54.9 °F 29.94 in Calm     92% 0.00 in
02:44 57.1 °F 54.8 °F 29.94 in Calm     92% 0.00 in
02:49 56.9 °F 54.6 °F 29.94 in Calm     92% 0.00 in
02:54 56.9 °F 54.6 °F 29.94 in Calm     92% 0.00 in
02:59 56.8 °F 54.5 °F 29.94 in SW 0.4 mph 2 mph 92% 0.00 in
03:04 56.7 °F 54.4 °F 29.94 in SW 0.4 mph 2 mph 92% 0.00 in
03:09 56.6 °F 54.3 °F 29.94 in Calm     92% 0.00 in
03:14 56.5 °F 54.2 °F 29.94 in Calm   2 mph 92% 0.00 in
03:19 56.4 °F 54.1 °F 29.94 in SW 1.2 mph 4 mph 92% 0.00 in
03:24 56.4 °F 54.1 °F 29.94 in Calm   2 mph 92% 0.00 in
03:29 56.3 °F 54 °F 29.94 in Calm   2 mph 92% 0.00 in
03:34 56.2 °F 53.9 °F 29.93 in Calm   2 mph 92% 0.00 in
03:39 56.1 °F 53.8 °F 29.93 in Calm     92% 0.00 in
03:44 56.1 °F 53.8 °F 29.93 in Calm     92% 0.00 in
03:49 56.1 °F 53.8 °F 29.94 in Calm     92% 0.00 in
03:54 56 °F 53.7 °F 29.94 in Calm     92% 0.00 in
03:59 55.9 °F 53.6 °F 29.93 in Calm   2 mph 92% 0.00 in
04:04 55.9 °F 53.6 °F 29.94 in Calm     92% 0.00 in
04:09 55.8 °F 53.5 °F 29.94 in SW 0.8 mph 2 mph 92% 0.00 in
04:14 55.7 °F 53.4 °F 29.94 in Calm   2 mph 92% 0.00 in
04:19 55.6 °F 53.3 °F 29.94 in Calm     92% 0.00 in
04:24 55.5 °F 53.2 °F 29.94 in Calm     92% 0.00 in
04:29 55.4 °F 53.1 °F 29.94 in Calm   2 mph 92% 0.00 in
04:34 55.3 °F 53 °F 29.95 in Calm   2 mph 92% 0.00 in
04:39 55.2 °F 52.9 °F 29.94 in Calm     92% 0.00 in
04:44 55.2 °F 52.9 °F 29.94 in Calm     92% 0.00 in
04:49 55.1 °F 52.8 °F 29.94 in Calm     92% 0.00 in
04:54 55.1 °F 52.8 °F 29.94 in Calm     92% 0.00 in
04:59 55.2 °F 52.9 °F 29.94 in Calm     92% 0.00 in
05:04 55.1 °F 52.8 °F 29.94 in Calm   2 mph 92% 0.00 in
05:09 55.1 °F 52.8 °F 29.94 in Calm   2 mph 92% 0.00 in
05:14 55 °F 52.7 °F 29.94 in Calm     92% 0.00 in
05:19 54.8 °F 52.5 °F 29.94 in Calm     92% 0.00 in
05:24 54.8 °F 52.5 °F 29.95 in Calm   2 mph 92% 0.00 in
05:29 54.7 °F 52.4 °F 29.95 in Calm   2 mph 92% 0.00 in
05:34 54.8 °F 52.5 °F 29.95 in Calm   2 mph 92% 0.00 in
05:39 54.7 °F 52.4 °F 29.95 in Calm     92% 0.00 in
05:44 54.7 °F 52.4 °F 29.95 in Calm     92% 0.00 in
05:49 54.6 °F 52.3 °F 29.95 in Calm     92% 0.00 in
05:54 54.6 °F 52.3 °F 29.95 in Calm   2 mph 92% 0.00 in
05:59 54.5 °F 52.2 °F 29.95 in Calm   2 mph 92% 0.00 in
06:04 54.4 °F 52.1 °F 29.95 in Calm     92% 0.00 in
06:09 54.3 °F 52 °F 29.95 in NE 0.4 mph 2 mph 92% 0.00 in
06:14 54.2 °F 51.9 °F 29.95 in Calm   2 mph 92% 0.00 in
06:19 54.2 °F 51.9 °F 29.96 in Calm     92% 0.00 in
06:24 54.1 °F 51.8 °F 29.95 in Calm     92% 0.00 in
06:29 54.2 °F 51.9 °F 29.95 in Calm   2 mph 92% 0.00 in
06:34 54.4 °F 52.1 °F 29.96 in Calm   2 mph 92% 0.00 in
06:39 54.4 °F 52.1 °F 29.96 in Calm   2 mph 92% 0.00 in
06:44 54.4 °F 52.1 °F 29.96 in Calm   2 mph 92% 0.00 in
06:49 54.4 °F 52.1 °F 29.96 in Calm     92% 0.00 in
06:54 54.5 °F 52.2 °F 29.96 in Calm   2 mph 92% 0.00 in
06:59 54.7 °F 52.4 °F 29.96 in Calm     92% 0.00 in
07:04 54.8 °F 52.5 °F 29.97 in Calm     92% 0.00 in
07:09 55 °F 52.7 °F 29.97 in Calm     92% 0.00 in
07:14 55.3 °F 53 °F 29.97 in Calm     92% 0.00 in
07:19 55.5 °F 53.2 °F 29.97 in Calm   2 mph 92% 0.00 in
07:24 55.8 °F 53.5 °F 29.97 in Calm   2 mph 92% 0.00 in
07:29 56.2 °F 53.9 °F 29.98 in NE 0.4 mph 2 mph 92% 0.00 in
07:34 56.6 °F 54.3 °F 29.98 in Calm   2 mph 92% 0.00 in
07:39 57 °F 54.7 °F 29.98 in ENE 1.2 mph 2 mph 92% 0.00 in
07:44 57.4 °F 55.1 °F 29.98 in ENE 1.6 mph 4 mph 92% 0.00 in
07:49 57.9 °F 55.6 °F 29.98 in ESE 1.6 mph 4 mph 92% 0.00 in
07:54 58.5 °F 56.2 °F 29.98 in ESE 1.2 mph 4 mph 92% 0.00 in
07:59 59 °F 56.7 °F 29.98 in ESE 0.4 mph 4 mph 92% 0.00 in
08:04 59.5 °F 57.2 °F 29.98 in ESE 1.6 mph 5 mph 92% 0.00 in
08:09 60 °F 57.7 °F 29.98 in ESE 3.2 mph 5 mph 92% 0.00 in
08:14 60.5 °F 58.2 °F 29.98 in ESE 2 mph 5 mph 92% 0.00 in
08:19 61.2 °F 58.9 °F 29.98 in ESE 1.6 mph 5 mph 92% 0.00 in
08:24 62 °F 59.6 °F 29.98 in ENE 4 mph 5 mph 92% 0.00 in
08:29 62.7 °F 60.3 °F 29.98 in SE 2.2 mph 9 mph 92% 0.00 in
08:34 63.3 °F 60.9 °F 29.98 in SE 3.8 mph 9 mph 92% 0.00 in
08:39 64.1 °F 61.4 °F 29.98 in ESE 2.8 mph 7 mph 91.2% 0.00 in
08:44 64.9 °F 62 °F 29.98 in East 2.4 mph 9 mph 90.2% 0.00 in
08:49 65.7 °F 62.2 °F 29.98 in ESE 3.2 mph 7 mph 88.6% 0.00 in
08:54 66.4 °F 62.9 °F 29.98 in SSE 1.6 mph 5 mph 88.4% 0.00 in
08:59 67.2 °F 63 °F 29.99 in SE 4.4 mph 7 mph 86.6% 0.00 in
09:04 67.7 °F 63.4 °F 29.99 in ESE 3 mph 7 mph 86% 0.00 in
09:09 68.3 °F 63.8 °F 29.99 in ESE 1.2 mph 4 mph 85.4% 0.00 in
09:14 69 °F 63.8 °F 29.99 in SE 5.8 mph 10 mph 83.4% 0.00 in
09:19 69.3 °F 63.6 °F 29.99 in SSE 4.8 mph 12 mph 82% 0.00 in
09:24 69.7 °F 63.7 °F 29.99 in SSW 2.4 mph 7 mph 81.2% 0.00 in
09:29 70.4 °F 64.3 °F 29.99 in NE 1.2 mph 5 mph 80.8% 0.00 in
09:34 71.4 °F 64.6 °F 29.99 in SE 3.2 mph 7 mph 79.4% 0.00 in
09:39 71.9 °F 64.5 °F 29.99 in ESE 3.6 mph 10 mph 77.4% 0.00 in
09:44 71.9 °F 64.3 °F 29.99 in ESE 3.6 mph 10 mph 77% 0.00 in
09:49 72.1 °F 64.7 °F 29.99 in SE 4.4 mph 9 mph 77.4% 0.00 in
09:54 72.2 °F 64.4 °F 29.99 in ESE 5.8 mph 10 mph 76.6% 0.00 in
09:59 72.4 °F 64.5 °F 29.99 in NE 3.6 mph 10 mph 76.2% 0.00 in
10:04 72.9 °F 64.6 °F 30.00 in East 3.2 mph 7 mph 75.2% 0.00 in
10:09 73.2 °F 64.5 °F 30.00 in ESE 1.2 mph 7 mph 74.2% 0.00 in
10:14 73.6 °F 64.7 °F 30.00 in SSW 4.4 mph 7 mph 73.6% 0.00 in
10:19 74 °F 64.8 °F 30.00 in South 4.4 mph 7 mph 73% 0.00 in
10:24 74.3 °F 64.1 °F 30.00 in SSE 4.2 mph 9 mph 70.6% 0.00 in
10:29 74.7 °F 63.6 °F 30.00 in East 3.6 mph 9 mph 68.4% 0.00 in
10:34 74.9 °F 63.8 °F 30.00 in SE 3 mph 9 mph 68.4% 0.00 in
10:39 75.4 °F 62.6 °F 30.00 in SE 4.6 mph 9 mph 64.6% 0.00 in
10:44 75.7 °F 61.8 °F 29.99 in East 7.2 mph 10 mph 62% 0.00 in
10:49 75.9 °F 62 °F 29.99 in ESE 3.8 mph 10 mph 62% 0.00 in
10:54 76.1 °F 62.1 °F 29.99 in ESE 5 mph 12 mph 61.8% 0.00 in
10:59 76.3 °F 62 °F 29.99 in SE 5.4 mph 14 mph 61.2% 0.00 in
11:04 76.5 °F 62.4 °F 29.99 in ESE 3.8 mph 12 mph 61.8% 0.00 in
11:09 76.8 °F 62.1 °F 29.98 in ESE 5.6 mph 12 mph 60.4% 0.00 in
11:14 76.8 °F 62.1 °F 29.98 in SE 6.2 mph 12 mph 60.4% 0.00 in
11:19 77.1 °F 63.3 °F 29.99 in SE 3.2 mph 10 mph 62.4% 0.00 in
11:24 77.8 °F 62.6 °F 29.99 in ESE 4.2 mph 10 mph 59.6% 0.00 in
11:29 78.1 °F 61.6 °F 29.98 in East 7 mph 10 mph 57% 0.00 in
11:34 78.1 °F 61.5 °F 29.98 in ESE 4.6 mph 10 mph 56.8% 0.00 in
11:39 78.2 °F 61 °F 29.98 in SE 7.4 mph 12 mph 55.6% 0.00 in
11:44 78.1 °F 60.7 °F 29.98 in SE 6.6 mph 12 mph 55.2% 0.00 in
11:49 78.3 °F 60.7 °F 29.98 in ESE 4.4 mph 14 mph 54.8% 0.00 in
11:54 78.9 °F 61.5 °F 29.98 in ESE 5.2 mph 9 mph 55.2% 0.00 in
11:59 79.2 °F 61.3 °F 29.98 in ESE 4.4 mph 10 mph 54.4% 0.00 in
12:04 79.3 °F 61.4 °F 29.97 in East 3.2 mph 10 mph 54.4% 0.00 in
12:09 79.7 °F 61.8 °F 29.97 in SE 4.4 mph 12 mph 54.4% 0.00 in
12:14 79.9 °F 61.6 °F 29.97 in SE 4.8 mph 16 mph 53.8% 0.00 in
12:19 79.9 °F 61.7 °F 29.97 in SE 3 mph 9 mph 53.8% 0.00 in
12:24 80.3 °F 62.3 °F 29.96 in SE 5 mph 9 mph 54.4% 0.00 in
12:29 80.6 °F 61.3 °F 29.96 in ESE 6.4 mph 12 mph 52% 0.00 in
12:34 80.5 °F 61.8 °F 29.96 in SE 4.8 mph 9 mph 53% 0.00 in
12:39 80.6 °F 61.9 °F 29.95 in East 6.6 mph 14 mph 53% 0.00 in
12:44 80.8 °F 62.3 °F 29.95 in SE 6.4 mph 14 mph 53.4% 0.00 in
12:49 80.9 °F 62.3 °F 29.95 in East 4.6 mph 9 mph 53.2% 0.00 in
12:54 81 °F 61.6 °F 29.94 in SE 6.6 mph 16 mph 51.8% 0.00 in
12:59 80.9 °F 61.4 °F 29.94 in SE 5 mph 14 mph 51.6% 0.00 in
13:04 81.2 °F 62.2 °F 29.95 in NE 2.2 mph 9 mph 52.6% 0.00 in
13:09 81.7 °F 62.7 °F 29.94 in ESE 4.2 mph 9 mph 52.6% 0.00 in
13:14 81.9 °F 62.6 °F 29.94 in ESE 4.6 mph 10 mph 52% 0.00 in
13:19 81.9 °F 62.8 °F 29.94 in SE 2.8 mph 10 mph 52.4% 0.00 in
13:24 82.3 °F 62.9 °F 29.94 in SSE 3.8 mph 9 mph 52% 0.00 in
13:29 82.7 °F 63.7 °F 29.93 in ESE 2.2 mph 9 mph 52.8% 0.00 in
13:34 83.4 °F 63.1 °F 29.93 in South 3.6 mph 9 mph 50.4% 0.00 in
13:39 83.3 °F 62.3 °F 29.93 in SSE 3 mph 9 mph 49.2% 0.00 in
13:44 83.6 °F 62.8 °F 29.93 in SE 4.2 mph 10 mph 49.8% 0.00 in
13:49 83.6 °F 63.4 °F 29.92 in South 2.8 mph 9 mph 50.6% 0.00 in
13:54 84 °F 63.9 °F 29.92 in SE 5.8 mph 10 mph 50.8% 0.00 in
13:59 84 °F 61.8 °F 29.92 in ESE 4.6 mph 12 mph 47.4% 0.00 in
14:04 84 °F 61.8 °F 29.91 in ESE 4.8 mph 10 mph 47.4% 0.00 in
14:09 84.1 °F 61.3 °F 29.91 in SSE 5.6 mph 10 mph 46.4% 0.00 in
14:14 84.4 °F 62.4 °F 29.91 in SE 2.8 mph 9 mph 47.8% 0.00 in
14:19 84.9 °F 62.9 °F 29.91 in East 4.8 mph 9 mph 47.8% 0.00 in
14:24 84.7 °F 63.4 °F 29.90 in East 2 mph 9 mph 49% 0.00 in
14:29 85.2 °F 64 °F 29.90 in SSW 4.6 mph 9 mph 49.2% 0.00 in
14:34 85.5 °F 64.3 °F 29.90 in South 2.4 mph 9 mph 49.2% 0.00 in
14:39 85.6 °F 62.8 °F 29.90 in South 3.2 mph 9 mph 46.6% 0.00 in
14:44 85.7 °F 62.8 °F 29.89 in SSE 5 mph 9 mph 46.4% 0.00 in
14:49 85.5 °F 62.2 °F 29.89 in SSE 3.4 mph 9 mph 45.6% 0.00 in
14:54 85.7 °F 63.6 °F 29.89 in South 3.4 mph 7 mph 47.8% 0.00 in
14:59 85.6 °F 63.3 °F 29.89 in SSW 3.6 mph 10 mph 47.4% 0.00 in
15:04 85.7 °F 63.7 °F 29.89 in SSW 3.2 mph 7 mph 48% 0.00 in
15:09 86.1 °F 63.3 °F 29.88 in South 4.4 mph 9 mph 46.6% 0.00 in
15:14 86 °F 62.7 °F 29.88 in South 5.2 mph 14 mph 45.8% 0.00 in
15:19 85.8 °F 63.8 °F 29.87 in SSE 3.8 mph 9 mph 48% 0.00 in
15:24 86.2 °F 64.2 °F 29.87 in SW 3.2 mph 9 mph 48% 0.00 in
15:29 86.5 °F 64.6 °F 29.87 in SW 3.8 mph 7 mph 48.2% 0.00 in
15:34 86.2 °F 64.6 °F 29.87 in South 4.6 mph 9 mph 48.6% 0.00 in
Compliments of Weather Underground - 2 mb